Time;durP1;ratioP1;P1;durP2;ratioP2;P2;SDS_P1;SDS_P2;PMS_P1;PMS_P2;Temp;Humidity;BMP_temperature;BMP_pressure;BME280_temperature;BME280_humidity;BME280_pressure;Samples;Min_cycle;Max_cycle;Signal;HPM_P1;HPM_P2
2021/11/25 00:02:22;;;;;;;;;21.50;17.75;;;;;;;;5018921;28;11568;-78
2021/11/25 00:04:50;;;;;;;;;21.75;20.00;;;;;;;;5022841;28;11542;-78
2021/11/25 00:07:19;;;;;;;;;16.75;15.25;;;;;;;;5024303;28;11647;-79
2021/11/25 00:09:47;;;;;;;;;20.00;17.00;;;;;;;;5025390;28;11531;-78
2021/11/25 00:12:15;;;;;;;;;22.75;21.25;;;;;;;;5028144;28;11556;-78
2021/11/25 00:14:42;;;;;;;;;17.50;17.50;;;;;;;;5021359;28;11550;-78
2021/11/25 00:17:09;;;;;;;;;17.00;16.50;;;;;;;;5028178;28;11579;-78
2021/11/25 00:19:36;;;;;;;;;20.50;18.50;;;;;;;;5022379;28;11567;-78
2021/11/25 00:22:04;;;;;;;;;20.00;19.50;;;;;;;;5028673;28;11682;-78
2021/11/25 00:24:33;;;;;;;;;24.50;20.75;;;;;;;;5017091;28;11553;-78
2021/11/25 00:27:00;;;;;;;;;21.00;21.00;;;;;;;;5012813;28;11666;-78
2021/11/25 00:29:28;;;;;;;;;18.75;18.75;;;;;;;;5023190;28;11537;-78
2021/11/25 00:31:55;;;;;;;;;24.75;20.75;;;;;;;;5029267;28;11530;-78
2021/11/25 00:34:22;;;;;;;;;17.50;17.25;;;;;;;;5018932;28;11722;-78
2021/11/25 00:36:50;;;;;;;;;17.50;16.00;;;;;;;;5018929;28;11601;-78
2021/11/25 00:39:17;;;;;;;;;26.00;21.00;;;;;;;;5021220;28;11660;-79
2021/11/25 00:41:48;;;;;;;;;18.75;17.00;;;;;;;;5017031;28;11541;-79
2021/11/25 00:44:16;;;;;;;;;17.50;15.00;;;;;;;;5021655;28;12880;-76
2021/11/25 00:46:43;;;;;;;;;16.50;16.00;;;;;;;;5026892;28;11774;-76
2021/11/25 00:49:11;;;;;;;;;21.75;19.50;;;;;;;;5016700;28;11677;-76
2021/11/25 00:51:39;;;;;;;;;19.75;19.75;;;;;;;;5027344;28;11545;-75
2021/11/25 00:54:06;;;;;;;;;24.50;24.25;;;;;;;;5017987;28;11584;-76
2021/11/25 00:56:33;;;;;;;;;23.50;22.00;;;;;;;;5015831;28;11552;-76
2021/11/25 00:59:02;;;;;;;;;31.00;25.00;;;;;;;;5025445;28;11569;-76
2021/11/25 01:01:30;;;;;;;;;36.50;30.75;;;;;;;;5013652;28;11533;-76
2021/11/25 01:03:57;;;;;;;;;49.75;39.25;;;;;;;;5014251;28;11557;-76
2021/11/25 01:06:25;;;;;;;;;48.00;43.00;;;;;;;;5023511;28;11622;-76
2021/11/25 01:08:52;;;;;;;;;32.50;27.25;;;;;;;;5026378;28;11587;-76
2021/11/25 01:11:21;;;;;;;;;31.75;27.75;;;;;;;;5006254;28;11568;-77
2021/11/25 01:13:49;;;;;;;;;34.50;27.50;;;;;;;;5010924;28;11666;-76
2021/11/25 01:16:17;;;;;;;;;31.25;29.50;;;;;;;;5023429;28;11565;-77
2021/11/25 01:18:45;;;;;;;;;36.00;30.25;;;;;;;;5021661;28;11600;-76
2021/11/25 01:21:12;;;;;;;;;28.00;24.50;;;;;;;;5014012;28;11598;-76
2021/11/25 01:23:39;;;;;;;;;36.25;29.50;;;;;;;;5032439;28;11578;-77
2021/11/25 01:26:07;;;;;;;;;28.00;27.50;;;;;;;;5016161;28;11591;-77
2021/11/25 01:28:34;;;;;;;;;34.00;33.75;;;;;;;;5016864;28;11562;-77
2021/11/25 01:31:03;;;;;;;;;37.25;37.25;;;;;;;;5032999;28;12426;-77
2021/11/25 01:33:33;;;;;;;;;36.00;31.00;;;;;;;;5023378;28;11595;-77
2021/11/25 01:36:01;;;;;;;;;49.25;42.00;;;;;;;;5018977;28;11713;-77
2021/11/25 01:38:30;;;;;;;;;42.25;39.00;;;;;;;;5023914;28;12067;-78
2021/11/25 01:40:57;;;;;;;;;44.00;39.50;;;;;;;;5016557;28;11593;-79
2021/11/25 01:43:26;;;;;;;;;51.75;42.50;;;;;;;;5028300;28;12408;-78
2021/11/25 01:45:54;;;;;;;;;66.00;50.50;;;;;;;;5020446;28;11693;-78
2021/11/25 01:48:22;;;;;;;;;55.50;45.75;;;;;;;;5022771;28;11576;-78
2021/11/25 01:50:52;;;;;;;;;52.25;44.75;;;;;;;;5012366;28;11664;-78
2021/11/25 01:53:20;;;;;;;;;51.50;40.50;;;;;;;;5016276;28;11614;-78
2021/11/25 01:55:48;;;;;;;;;44.75;41.50;;;;;;;;5012756;28;11591;-78
2021/11/25 01:58:17;;;;;;;;;57.25;47.50;;;;;;;;5020533;28;11566;-79
2021/11/25 02:00:48;;;;;;;;;44.50;39.25;;;;;;;;5033335;28;11505;-79
2021/11/25 02:03:15;;;;;;;;;47.50;40.75;;;;;;;;4995483;28;11598;-78
2021/11/25 02:05:43;;;;;;;;;39.50;34.25;;;;;;;;5027387;28;12396;-79
2021/11/25 02:08:12;;;;;;;;;47.00;41.25;;;;;;;;5020662;28;12517;-78
2021/11/25 02:10:41;;;;;;;;;45.25;41.00;;;;;;;;5026704;28;11576;-79
2021/11/25 02:13:09;;;;;;;;;43.50;40.50;;;;;;;;5023891;28;11593;-78
2021/11/25 02:15:37;;;;;;;;;40.50;34.50;;;;;;;;5024903;28;11578;-79
2021/11/25 02:18:06;;;;;;;;;42.25;33.00;;;;;;;;5021285;28;11578;-79
2021/11/25 02:20:36;;;;;;;;;48.75;41.75;;;;;;;;5012253;28;11781;-78
2021/11/25 02:23:03;;;;;;;;;42.50;40.00;;;;;;;;5019217;28;11579;-78
2021/11/25 02:25:31;;;;;;;;;57.75;41.50;;;;;;;;5018636;28;11681;-78
2021/11/25 02:27:58;;;;;;;;;47.00;40.75;;;;;;;;5023136;28;11570;-78
2021/11/25 02:30:26;;;;;;;;;49.75;39.50;;;;;;;;5020560;28;11533;-79
2021/11/25 02:32:53;;;;;;;;;47.50;40.00;;;;;;;;5027127;28;11581;-79
2021/11/25 02:35:22;;;;;;;;;36.50;30.75;;;;;;;;5035943;28;11605;-79
2021/11/25 02:37:53;;;;;;;;;50.50;43.75;;;;;;;;5012876;28;11611;-79
2021/11/25 02:40:24;;;;;;;;;37.25;34.00;;;;;;;;5023856;28;11610;-79
2021/11/25 02:42:53;;;;;;;;;38.75;35.75;;;;;;;;5013738;28;12513;-79
2021/11/25 02:45:21;;;;;;;;;45.00;41.00;;;;;;;;5031793;28;12372;-78
2021/11/25 02:47:49;;;;;;;;;38.75;36.50;;;;;;;;5018689;28;11547;-79
2021/11/25 02:50:17;;;;;;;;;41.75;40.00;;;;;;;;5021001;28;11525;-78
2021/11/25 02:52:45;;;;;;;;;38.50;37.00;;;;;;;;5021632;28;11694;-78
2021/11/25 02:55:15;;;;;;;;;38.00;35.50;;;;;;;;5017766;28;11635;-78
2021/11/25 02:57:42;;;;;;;;;38.00;38.00;;;;;;;;5016422;28;11681;-79
2021/11/25 03:00:20;;;;;;;;;48.50;40.50;;;;;;;;5013162;28;11591;-79
2021/11/25 03:02:48;;;;;;;;;48.00;40.75;;;;;;;;5015896;28;11552;-78
2021/11/25 03:05:15;;;;;;;;;50.25;41.75;;;;;;;;5018675;28;11578;-78
2021/11/25 03:07:42;;;;;;;;;44.50;38.25;;;;;;;;5014623;28;12318;-78
2021/11/25 03:10:09;;;;;;;;;52.00;45.75;;;;;;;;5024484;28;11557;-79
2021/11/25 03:12:38;;;;;;;;;56.50;46.75;;;;;;;;5028651;28;11575;-79
2021/11/25 03:15:06;;;;;;;;;43.75;37.75;;;;;;;;5036659;28;11574;-79
2021/11/25 03:17:34;;;;;;;;;54.25;44.00;;;;;;;;5005871;28;11565;-79
2021/11/25 03:20:01;;;;;;;;;49.00;41.00;;;;;;;;5027108;28;11539;-80
2021/11/25 03:22:29;;;;;;;;;59.75;45.00;;;;;;;;5018456;28;11575;-79
2021/11/25 03:24:57;;;;;;;;;60.25;43.75;;;;;;;;5018137;28;11501;-79
2021/11/25 03:27:24;;;;;;;;;59.33;47.00;;;;;;;;5007216;28;11559;-79
2021/11/25 03:29:53;;;;;;;;;66.67;51.00;;;;;;;;5019047;28;11685;-79
2021/11/25 03:32:20;;;;;;;;;56.33;46.67;;;;;;;;5024725;28;11532;-79
2021/11/25 03:34:47;;;;;;;;;52.00;44.67;;;;;;;;5024623;28;11702;-79
2021/11/25 03:37:15;;;;;;;;;62.00;51.00;;;;;;;;5024452;28;11605;-79
2021/11/25 03:39:42;;;;;;;;;64.00;47.67;;;;;;;;5005823;28;11595;-79
2021/11/25 03:42:11;;;;;;;;;57.00;45.67;;;;;;;;5016147;28;11678;-78
2021/11/25 03:44:40;;;;;;;;;51.33;42.33;;;;;;;;5028184;28;12400;-79
2021/11/25 03:47:09;;;;;;;;;67.00;54.33;;;;;;;;5030157;28;11632;-78
2021/11/25 03:49:37;;;;;;;;;60.67;49.67;;;;;;;;5024716;28;8880;-80
2021/11/25 03:52:05;;;;;;;;;61.00;50.67;;;;;;;;5023575;28;11701;-79
2021/11/25 03:54:33;;;;;;;;;60.00;48.67;;;;;;;;5008413;28;11583;-78
2021/11/25 03:57:00;;;;;;;;;66.67;53.33;;;;;;;;5005250;28;11603;-79
2021/11/25 03:59:27;;;;;;;;;58.33;51.00;;;;;;;;5025565;28;9629;-79
2021/11/25 04:01:55;;;;;;;;;60.67;47.33;;;;;;;;5011224;28;11632;-79
2021/11/25 04:04:23;;;;;;;;;49.25;43.25;;;;;;;;5009915;28;12744;-79
2021/11/25 04:06:50;;;;;;;;;59.00;50.00;;;;;;;;5024489;28;11570;-79
2021/11/25 04:09:18;;;;;;;;;64.67;52.33;;;;;;;;5021143;28;11596;-79
2021/11/25 04:11:45;;;;;;;;;54.00;45.75;;;;;;;;5023281;28;11701;-79
2021/11/25 04:14:12;;;;;;;;;58.25;46.00;;;;;;;;5030932;28;12473;-79
2021/11/25 04:16:40;;;;;;;;;45.75;40.50;;;;;;;;5030917;28;12461;-78
2021/11/25 04:19:07;;;;;;;;;65.33;52.00;;;;;;;;5034447;28;11591;-79
2021/11/25 04:21:36;;;;;;;;;49.50;42.75;;;;;;;;5026006;28;11732;-79
2021/11/25 04:24:03;;;;;;;;;56.50;46.00;;;;;;;;5028271;28;11552;-80
2021/11/25 04:26:30;;;;;;;;;43.75;39.50;;;;;;;;5019813;28;11566;-79
2021/11/25 04:28:58;;;;;;;;;56.25;46.75;;;;;;;;5011980;28;11595;-79
2021/11/25 04:36:57;;;;;;;;;53.67;47.00;;;;;;;;5007019;28;11532;-79
2021/11/25 04:39:26;;;;;;;;;46.67;43.67;;;;;;;;5025254;28;12260;-77
2021/11/25 04:41:54;;;;;;;;;52.33;43.33;;;;;;;;5019458;28;12273;-78
2021/11/25 04:44:21;;;;;;;;;54.33;44.67;;;;;;;;5030053;28;11566;-78
2021/11/25 04:46:49;;;;;;;;;52.00;45.00;;;;;;;;5029942;28;11599;-79
2021/11/25 04:49:16;;;;;;;;;48.67;43.00;;;;;;;;5019508;28;8870;-79
2021/11/25 04:51:43;;;;;;;;;65.00;49.33;;;;;;;;5018740;28;11539;-79
2021/11/25 04:54:12;;;;;;;;;65.00;52.33;;;;;;;;5019805;28;8896;-79
2021/11/25 04:56:39;;;;;;;;;52.67;43.67;;;;;;;;5024352;28;8910;-79
2021/11/25 04:59:06;;;;;;;;;48.00;39.00;;;;;;;;5008467;28;11716;-79
2021/11/25 05:01:34;;;;;;;;;58.33;43.00;;;;;;;;5011946;28;11554;-80
2021/11/25 05:04:01;;;;;;;;;55.67;44.67;;;;;;;;5016799;28;9668;-80
2021/11/25 05:06:29;;;;;;;;;49.00;45.33;;;;;;;;5020955;28;8873;-78
2021/11/25 05:08:56;;;;;;;;;61.00;45.33;;;;;;;;5019775;28;8944;-79
2021/11/25 05:11:25;;;;;;;;;55.67;44.67;;;;;;;;5003499;28;8990;-80
2021/11/25 05:13:52;;;;;;;;;50.00;45.00;;;;;;;;5023793;28;8876;-79
2021/11/25 05:16:19;;;;;;;;;49.00;43.67;;;;;;;;5041082;28;8884;-78
2021/11/25 05:18:46;;;;;;;;;52.00;44.67;;;;;;;;5025896;28;8876;-79
2021/11/25 05:21:14;;;;;;;;;61.67;48.67;;;;;;;;5025308;28;8961;-78
2021/11/25 05:23:41;;;;;;;;;58.33;44.00;;;;;;;;5035129;28;8896;-77
2021/11/25 05:26:08;;;;;;;;;36.67;34.67;;;;;;;;5024696;28;8907;-80
2021/11/25 05:28:37;;;;;;;;;56.67;43.67;;;;;;;;5026296;28;9048;-78
2021/11/25 05:31:04;;;;;;;;;57.33;47.00;;;;;;;;5005857;28;8829;-78
2021/11/25 05:33:32;;;;;;;;;53.33;45.33;;;;;;;;5031204;28;8849;-78
2021/11/25 05:35:59;;;;;;;;;47.33;39.00;;;;;;;;5003149;28;8902;-78
2021/11/25 05:38:26;;;;;;;;;53.33;43.67;;;;;;;;5026212;28;9015;-79
2021/11/25 05:40:54;;;;;;;;;66.00;48.33;;;;;;;;5004226;28;8904;-78
2021/11/25 05:43:22;;;;;;;;;58.00;46.67;;;;;;;;4994310;28;8906;-78
2021/11/25 05:45:51;;;;;;;;;62.00;48.00;;;;;;;;5031075;28;8855;-80
2021/11/25 05:48:19;;;;;;;;;53.00;44.67;;;;;;;;5019007;28;8899;-79
2021/11/25 05:50:46;;;;;;;;;51.33;44.33;;;;;;;;5015727;28;8847;-79
2021/11/25 05:53:18;;;;;;;;;50.33;43.00;;;;;;;;5015532;28;8868;-78
2021/11/25 05:55:45;;;;;;;;;48.00;43.67;;;;;;;;5027538;28;8988;-77
2021/11/25 05:58:13;;;;;;;;;57.67;45.00;;;;;;;;5022560;28;9647;-78
2021/11/25 06:00:40;;;;;;;;;56.67;46.00;;;;;;;;5013700;28;8821;-78
2021/11/25 06:03:09;;;;;;;;;52.00;46.00;;;;;;;;5017800;28;9027;-79
2021/11/25 06:05:36;;;;;;;;;51.67;42.33;;;;;;;;5022736;28;8899;-78
2021/11/25 06:08:04;;;;;;;;;53.00;44.67;;;;;;;;5024703;28;9704;-78
2021/11/25 06:10:32;;;;;;;;;42.67;42.00;;;;;;;;5028244;28;8881;-78
2021/11/25 06:12:59;;;;;;;;;61.00;47.00;;;;;;;;5021573;28;8852;-77
2021/11/25 06:15:27;;;;;;;;;56.33;49.00;;;;;;;;5018391;28;8884;-78
2021/11/25 06:17:54;;;;;;;;;40.33;33.67;;;;;;;;5025715;28;8912;-78
2021/11/25 06:20:23;;;;;;;;;48.67;45.33;;;;;;;;5036354;28;8862;-78
2021/11/25 06:22:53;;;;;;;;;50.00;41.33;;;;;;;;5023646;28;8860;-78
2021/11/25 06:25:23;;;;;;;;;48.67;44.67;;;;;;;;5002277;28;8900;-80
2021/11/25 06:27:51;;;;;;;;;48.67;44.00;;;;;;;;5018476;28;8852;-78
2021/11/25 06:30:18;;;;;;;;;45.00;40.00;;;;;;;;5018016;28;8873;-78
2021/11/25 06:32:47;;;;;;;;;58.33;42.67;;;;;;;;5017253;28;8899;-78
2021/11/25 06:35:17;;;;;;;;;53.00;45.00;;;;;;;;5023212;28;8846;-77
2021/11/25 06:37:48;;;;;;;;;54.33;46.00;;;;;;;;5022182;28;8876;-77
2021/11/25 06:40:18;;;;;;;;;50.33;45.33;;;;;;;;5024076;28;9660;-77
2021/11/25 06:42:45;;;;;;;;;54.67;43.00;;;;;;;;5021826;28;8860;-78
2021/11/25 06:45:13;;;;;;;;;55.67;46.00;;;;;;;;5015044;28;8879;-77
2021/11/25 06:47:41;;;;;;;;;50.33;46.33;;;;;;;;5003220;28;9657;-77
2021/11/25 06:50:10;;;;;;;;;57.67;46.00;;;;;;;;5019941;28;8999;-77
2021/11/25 06:52:38;;;;;;;;;54.00;42.00;;;;;;;;5025651;28;9608;-77
2021/11/25 06:55:08;;;;;;;;;54.00;47.67;;;;;;;;5024569;28;8864;-83
2021/11/25 06:57:36;;;;;;;;;55.67;48.67;;;;;;;;5025216;28;8873;-78
2021/11/25 07:00:05;;;;;;;;;64.33;49.67;;;;;;;;5024978;28;8876;-78
2021/11/25 07:02:32;;;;;;;;;62.67;51.67;;;;;;;;5029059;28;8892;-78
2021/11/25 07:05:02;;;;;;;;;67.33;52.00;;;;;;;;5010414;28;8891;-78
2021/11/25 07:07:29;;;;;;;;;62.33;49.33;;;;;;;;5024192;28;8868;-78
2021/11/25 07:09:57;;;;;;;;;64.00;49.00;;;;;;;;5027465;28;8907;-79
2021/11/25 07:12:26;;;;;;;;;56.33;48.33;;;;;;;;5025890;28;8860;-78
2021/11/25 07:14:54;;;;;;;;;66.33;49.67;;;;;;;;5028611;28;8975;-79
2021/11/25 07:17:21;;;;;;;;;59.67;49.67;;;;;;;;5008715;28;8879;-78
2021/11/25 07:19:48;;;;;;;;;56.00;50.33;;;;;;;;5036941;28;8878;-78
2021/11/25 07:22:16;;;;;;;;;61.00;50.67;;;;;;;;5035048;28;8833;-79
2021/11/25 07:24:43;;;;;;;;;55.67;47.33;;;;;;;;5022183;28;8875;-79
2021/11/25 07:27:10;;;;;;;;;68.00;51.33;;;;;;;;5027946;28;9654;-79
2021/11/25 07:29:39;;;;;;;;;63.00;50.00;;;;;;;;5012545;28;8869;-78
2021/11/25 07:32:07;;;;;;;;;69.00;49.67;;;;;;;;5006900;28;8857;-78
2021/11/25 07:34:35;;;;;;;;;56.67;48.00;;;;;;;;5027931;28;9479;-78
2021/11/25 07:37:03;;;;;;;;;60.00;49.00;;;;;;;;5029981;28;8857;-81
2021/11/25 07:39:30;;;;;;;;;62.33;51.00;;;;;;;;5028870;28;8859;-77
2021/11/25 07:41:58;;;;;;;;;59.67;51.00;;;;;;;;5040804;28;8894;-78
2021/11/25 07:44:25;;;;;;;;;72.00;55.67;;;;;;;;5033295;28;8865;-78
2021/11/25 07:46:54;;;;;;;;;87.67;69.00;;;;;;;;5043576;28;8890;-79
2021/11/25 07:49:22;;;;;;;;;96.00;71.67;;;;;;;;5028482;28;8886;-78
2021/11/25 07:51:49;;;;;;;;;79.67;63.33;;;;;;;;5040317;28;8906;-78
2021/11/25 07:54:17;;;;;;;;;69.67;56.33;;;;;;;;5015404;28;8869;-78
2021/11/25 07:56:46;;;;;;;;;78.00;60.67;;;;;;;;5036841;28;8874;-78
2021/11/25 07:59:13;;;;;;;;;70.00;57.00;;;;;;;;5014938;28;9017;-78
2021/11/25 08:01:42;;;;;;;;;77.33;60.00;;;;;;;;5043042;28;8874;-78
2021/11/25 08:04:10;;;;;;;;;70.00;58.00;;;;;;;;5034810;28;8902;-78
2021/11/25 08:06:38;;;;;;;;;72.00;56.67;;;;;;;;5028718;28;8866;-78
2021/11/25 08:09:05;;;;;;;;;67.33;54.67;;;;;;;;5040785;28;8940;-77
2021/11/25 08:11:33;;;;;;;;;68.67;52.00;;;;;;;;5031204;28;8867;-80
2021/11/25 08:14:00;;;;;;;;;62.33;49.67;;;;;;;;5025097;28;8900;-80
2021/11/25 08:16:27;;;;;;;;;77.00;58.00;;;;;;;;5022858;28;8870;-75
2021/11/25 08:18:54;;;;;;;;;63.33;49.67;;;;;;;;5028185;28;8878;-76
2021/11/25 08:21:23;;;;;;;;;64.00;49.33;;;;;;;;5034075;28;8911;-77
2021/11/25 08:23:50;;;;;;;;;64.33;49.33;;;;;;;;5034875;28;8846;-78
2021/11/25 08:26:18;;;;;;;;;59.67;48.67;;;;;;;;5038274;28;8929;-77
2021/11/25 08:28:46;;;;;;;;;66.33;50.33;;;;;;;;5022203;28;8901;-77
2021/11/25 08:31:14;;;;;;;;;63.33;52.00;;;;;;;;5025481;28;8848;-76
2021/11/25 08:33:41;;;;;;;;;70.33;56.00;;;;;;;;5031736;28;8892;-76
2021/11/25 08:36:09;;;;;;;;;61.67;51.00;;;;;;;;5028538;28;8856;-80
2021/11/25 08:38:37;;;;;;;;;75.33;55.67;;;;;;;;5028047;28;8877;-78
2021/11/25 08:41:05;;;;;;;;;69.00;57.00;;;;;;;;5031538;28;9159;-78
2021/11/25 08:43:32;;;;;;;;;63.33;52.00;;;;;;;;5044815;28;8858;-77
2021/11/25 08:46:00;;;;;;;;;65.00;56.67;;;;;;;;5031620;28;8863;-78
2021/11/25 08:48:28;;;;;;;;;68.33;53.67;;;;;;;;5031755;28;8987;-78
2021/11/25 08:50:55;;;;;;;;;66.67;56.33;;;;;;;;5025941;28;8872;-77
2021/11/25 08:53:23;;;;;;;;;61.33;52.00;;;;;;;;5023880;28;9797;-77
2021/11/25 08:55:52;;;;;;;;;72.00;59.33;;;;;;;;5022336;28;8898;-78
2021/11/25 08:58:20;;;;;;;;;67.67;56.67;;;;;;;;5039105;28;8920;-77
2021/11/25 09:00:47;;;;;;;;;69.00;55.67;;;;;;;;5033353;28;8790;-77
2021/11/25 09:03:14;;;;;;;;;69.00;53.67;;;;;;;;5026361;28;8917;-77
2021/11/25 09:05:42;;;;;;;;;75.00;58.67;;;;;;;;5035465;28;8864;-78
2021/11/25 09:08:09;;;;;;;;;68.00;53.67;;;;;;;;5028121;28;9680;-78
2021/11/25 09:10:37;;;;;;;;;72.33;56.33;;;;;;;;5029678;28;9622;-78
2021/11/25 09:13:06;;;;;;;;;66.00;55.00;;;;;;;;5041398;28;8862;-79
2021/11/25 09:15:34;;;;;;;;;67.67;54.67;;;;;;;;5016135;28;8907;-78
2021/11/25 09:18:02;;;;;;;;;68.00;53.67;;;;;;;;5029730;28;8863;-78
2021/11/25 09:20:33;;;;;;;;;73.33;56.00;;;;;;;;5026379;28;8879;-78
2021/11/25 09:23:01;;;;;;;;;71.67;57.67;;;;;;;;4984867;28;8856;-77
2021/11/25 09:25:29;;;;;;;;;65.67;56.33;;;;;;;;5028768;28;8883;-79
2021/11/25 09:27:56;;;;;;;;;65.00;54.00;;;;;;;;5034126;28;8871;-78
2021/11/25 09:30:25;;;;;;;;;75.33;60.00;;;;;;;;5033823;28;8768;-78
2021/11/25 09:32:53;;;;;;;;;61.00;48.33;;;;;;;;5025411;28;8914;-78
2021/11/25 09:35:21;;;;;;;;;68.67;55.00;;;;;;;;5012753;28;8918;-78
2021/11/25 09:37:48;;;;;;;;;72.00;57.33;;;;;;;;5012477;28;8869;-79
2021/11/25 09:40:22;;;;;;;;;71.67;54.67;;;;;;;;5033238;28;8991;-81
2021/11/25 09:42:50;;;;;;;;;62.33;51.00;;;;;;;;5039686;28;11680;-83
2021/11/25 09:45:21;;;;;;;;;72.00;57.00;;;;;;;;5030582;28;8881;-80
2021/11/25 09:47:51;;;;;;;;;72.67;59.00;;;;;;;;5005993;28;8882;-80
2021/11/25 09:50:20;;;;;;;;;77.00;59.00;;;;;;;;4992991;28;8867;-78
2021/11/25 09:52:48;;;;;;;;;69.33;56.33;;;;;;;;5028569;28;8886;-79
2021/11/25 09:55:15;;;;;;;;;73.00;60.00;;;;;;;;5032925;28;8872;-77
2021/11/25 09:57:43;;;;;;;;;78.33;59.67;;;;;;;;4994403;28;8917;-79
2021/11/25 10:00:12;;;;;;;;;81.00;60.67;;;;;;;;5031190;28;8897;-78
2021/11/25 10:02:39;;;;;;;;;76.67;60.00;;;;;;;;5038531;28;8877;-79
2021/11/25 10:05:09;;;;;;;;;81.67;63.00;;;;;;;;5034323;28;8890;-79
2021/11/25 10:07:38;;;;;;;;;77.00;62.00;;;;;;;;5034766;28;8940;-79
2021/11/25 10:10:25;;;;;;;;;72.00;61.00;;;;;;;;5029182;28;8874;-79
2021/11/25 10:12:58;;;;;;;;;78.33;61.00;;;;;;;;5038034;28;9687;-79
2021/11/25 10:15:31;;;;;;;;;82.33;64.67;;;;;;;;5023568;28;8867;-80
2021/11/25 10:18:00;;;;;;;;;83.00;62.33;;;;;;;;5027637;28;8887;-77
2021/11/25 10:20:34;;;;;;;;;80.00;64.67;;;;;;;;5014477;28;8872;-78
2021/11/25 10:23:15;;;;;;;;;77.33;61.00;;;;;;;;5034005;28;8866;-78
2021/11/25 10:25:45;;;;;;;;;76.67;61.33;;;;;;;;5032312;28;8889;-78
2021/11/25 10:28:36;;;;;;;;;81.33;63.33;;;;;;;;5025909;28;8887;-78
2021/11/25 10:31:08;;;;;;;;;71.33;58.33;;;;;;;;5026619;28;8940;-78
2021/11/25 10:33:39;;;;;;;;;61.33;50.00;;;;;;;;5032932;28;11572;-77
2021/11/25 10:36:29;;;;;;;;;72.33;53.00;;;;;;;;5033871;28;11655;-80
2021/11/25 10:39:13;;;;;;;;;68.00;55.67;;;;;;;;5037827;28;11687;-80
2021/11/25 10:41:43;;;;;;;;;75.00;56.33;;;;;;;;5036940;28;11651;-81
2021/11/25 10:44:19;;;;;;;;;75.00;55.67;;;;;;;;5038122;28;11679;-80
2021/11/25 10:46:52;;;;;;;;;69.00;55.00;;;;;;;;5028651;28;11652;-81
2021/11/25 10:49:20;;;;;;;;;63.75;48.50;;;;;;;;5040541;28;11581;-80
2021/11/25 10:51:49;;;;;;;;;70.25;55.00;;;;;;;;5024697;28;11662;-81
2021/11/25 10:54:17;;;;;;;;;67.00;55.75;;;;;;;;5031473;28;11691;-80
2021/11/25 10:56:50;;;;;;;;;73.75;56.00;;;;;;;;5031667;28;11777;-80
2021/11/25 10:59:19;;;;;;;;;63.50;51.00;;;;;;;;5034437;28;11563;-81
2021/11/25 11:01:48;;;;;;;;;63.75;53.25;;;;;;;;5028044;28;11586;-80
2021/11/25 11:04:17;;;;;;;;;68.50;51.75;;;;;;;;5017016;28;11773;-81
2021/11/25 11:06:45;;;;;;;;;62.25;51.75;;;;;;;;5042835;28;11672;-80
2021/11/25 11:09:29;;;;;;;;;72.75;54.75;;;;;;;;5035535;28;11639;-80
2021/11/25 11:12:29;;;;;;;;;73.25;60.00;;;;;;;;5031960;28;12073;-80
2021/11/25 11:15:01;;;;;;;;;74.25;56.25;;;;;;;;4993906;28;11586;-81
2021/11/25 11:17:31;;;;;;;;;61.25;50.25;;;;;;;;5041760;28;11658;-80
2021/11/25 11:20:20;;;;;;;;;70.00;53.50;;;;;;;;5030535;28;11667;-80
2021/11/25 11:22:55;;;;;;;;;71.00;54.50;;;;;;;;5019145;28;11587;-80
2021/11/25 11:25:25;;;;;;;;;68.25;52.25;;;;;;;;5028569;28;11655;-80
2021/11/25 11:27:55;;;;;;;;;53.00;45.75;;;;;;;;5043342;28;12450;-81
2021/11/25 11:30:24;;;;;;;;;69.50;54.25;;;;;;;;5040013;28;11571;-80
2021/11/25 11:32:52;;;;;;;;;67.00;51.50;;;;;;;;5036616;28;11668;-78
2021/11/25 11:35:22;;;;;;;;;62.00;53.50;;;;;;;;5032943;28;11665;-77
2021/11/25 11:37:52;;;;;;;;;57.25;47.00;;;;;;;;5027357;28;11631;-82
2021/11/25 11:40:19;;;;;;;;;64.00;51.25;;;;;;;;5020089;28;11587;-81
2021/11/25 11:42:49;;;;;;;;;61.75;47.50;;;;;;;;5012830;28;11576;-78
2021/11/25 11:45:17;;;;;;;;;64.00;51.50;;;;;;;;5014329;28;11562;-84
2021/11/25 11:47:44;;;;;;;;;62.25;53.00;;;;;;;;5024191;28;11554;-84
2021/11/25 11:50:12;;;;;;;;;68.25;54.25;;;;;;;;5019545;28;11613;-77
2021/11/25 11:52:55;;;;;;;;;66.50;49.00;;;;;;;;5025562;28;12144;-77
2021/11/25 11:55:37;;;;;;;;;57.25;48.25;;;;;;;;5015714;28;11696;-77
2021/11/25 11:58:27;;;;;;;;;49.25;42.00;;;;;;;;5003128;28;11585;-82
2021/11/25 12:00:56;;;;;;;;;57.75;47.25;;;;;;;;5021547;28;11511;-77
2021/11/25 12:03:37;;;;;;;;;62.25;50.25;;;;;;;;5027841;28;11629;-78
2021/11/25 12:06:06;;;;;;;;;55.00;47.00;;;;;;;;5018710;28;11632;-78
2021/11/25 12:08:41;;;;;;;;;56.75;43.50;;;;;;;;5007826;28;11566;-79
2021/11/25 12:11:11;;;;;;;;;61.50;51.00;;;;;;;;5019449;28;11601;-79
2021/11/25 12:14:06;;;;;;;;;56.75;46.75;;;;;;;;5015646;28;11538;-81
2021/11/25 12:16:36;;;;;;;;;57.00;46.25;;;;;;;;5019659;28;11744;-80
2021/11/25 12:19:08;;;;;;;;;58.25;48.50;;;;;;;;5023741;28;11715;-82
2021/11/25 12:21:44;;;;;;;;;54.25;44.75;;;;;;;;5022452;28;11580;-78
2021/11/25 12:24:18;;;;;;;;;50.00;43.00;;;;;;;;5026450;28;11565;-82
2021/11/25 12:27:21;;;;;;;;;54.75;46.75;;;;;;;;5006439;28;11729;-81
2021/11/25 12:29:54;;;;;;;;;49.00;44.50;;;;;;;;4948008;28;11851;-81
2021/11/25 12:32:40;;;;;;;;;57.25;43.75;;;;;;;;5013607;28;11556;-84
2021/11/25 12:35:42;;;;;;;;;55.00;44.00;;;;;;;;5017190;28;11621;-82
2021/11/25 12:38:17;;;;;;;;;54.75;44.25;;;;;;;;4942172;28;11597;-83
2021/11/25 12:40:55;;;;;;;;;46.00;39.75;;;;;;;;4940792;28;11547;-82
2021/11/25 12:43:24;;;;;;;;;63.00;48.50;;;;;;;;4975521;28;11673;-78
2021/11/25 12:45:54;;;;;;;;;60.00;46.25;;;;;;;;5020228;28;11599;-82
2021/11/25 12:48:24;;;;;;;;;58.75;45.75;;;;;;;;5022521;28;11681;-80
2021/11/25 12:50:54;;;;;;;;;49.00;41.50;;;;;;;;5024755;28;12293;-81
2021/11/25 12:53:25;;;;;;;;;47.00;41.00;;;;;;;;5016016;28;11660;-81
2021/11/25 12:55:59;;;;;;;;;55.25;44.75;;;;;;;;5030259;28;11687;-77
2021/11/25 12:58:44;;;;;;;;;56.25;45.25;;;;;;;;5033288;28;12137;-82
2021/11/25 13:01:17;;;;;;;;;59.25;45.50;;;;;;;;5016076;28;11558;-83
2021/11/25 13:03:45;;;;;;;;;56.75;46.00;;;;;;;;5032522;28;11530;-81
2021/11/25 13:06:12;;;;;;;;;47.00;39.00;;;;;;;;5029824;28;11708;-79
2021/11/25 13:08:42;;;;;;;;;55.25;45.00;;;;;;;;5033255;28;11734;-79
2021/11/25 13:11:17;;;;;;;;;55.00;43.75;;;;;;;;5027560;28;11650;-80
2021/11/25 13:13:47;;;;;;;;;57.25;47.25;;;;;;;;5023994;28;11651;-84
2021/11/25 13:16:16;;;;;;;;;58.25;45.00;;;;;;;;5031722;28;11592;-83
2021/11/25 13:18:52;;;;;;;;;55.25;47.50;;;;;;;;5007910;28;11504;-84
2021/11/25 13:21:21;;;;;;;;;59.50;45.50;;;;;;;;5020020;28;11571;-81
2021/11/25 13:24:17;;;;;;;;;59.75;46.25;;;;;;;;5027643;28;11560;-81
2021/11/25 13:26:51;;;;;;;;;54.75;42.75;;;;;;;;5025220;28;11525;-80
2021/11/25 13:29:20;;;;;;;;;52.50;44.00;;;;;;;;5024858;28;11648;-79
2021/11/25 13:31:49;;;;;;;;;49.75;42.00;;;;;;;;5012188;28;11472;-82
2021/11/25 13:34:18;;;;;;;;;56.25;45.50;;;;;;;;5022600;28;11645;-77
2021/11/25 13:36:49;;;;;;;;;58.00;47.00;;;;;;;;5017388;28;11684;-77
2021/11/25 13:39:21;;;;;;;;;57.50;45.25;;;;;;;;5011748;28;11529;-78
2021/11/25 13:41:51;;;;;;;;;54.25;42.25;;;;;;;;5017206;28;11547;-77
2021/11/25 13:44:18;;;;;;;;;54.50;43.00;;;;;;;;5017590;28;11574;-77
2021/11/25 13:46:49;;;;;;;;;39.75;38.25;;;;;;;;5036918;28;11544;-77
2021/11/25 13:49:18;;;;;;;;;64.50;50.00;;;;;;;;5034691;28;11473;-77
2021/11/25 13:51:46;;;;;;;;;61.25;48.00;;;;;;;;5042797;28;11599;-76
2021/11/25 13:54:16;;;;;;;;;60.25;49.50;;;;;;;;5035042;28;11587;-77
2021/11/25 13:56:44;;;;;;;;;58.25;48.75;;;;;;;;5034100;28;11585;-77
2021/11/25 13:59:13;;;;;;;;;63.50;53.00;;;;;;;;5042807;28;11593;-76
2021/11/25 14:01:40;;;;;;;;;66.25;51.25;;;;;;;;5013662;28;11500;-77
2021/11/25 14:04:09;;;;;;;;;58.25;46.75;;;;;;;;5044138;28;12403;-78
2021/11/25 14:06:38;;;;;;;;;70.00;53.25;;;;;;;;5043868;28;12482;-77
2021/11/25 14:09:11;;;;;;;;;68.00;51.00;;;;;;;;5043187;28;11585;-76
2021/11/25 14:11:40;;;;;;;;;61.75;50.50;;;;;;;;5033654;28;11651;-76
2021/11/25 14:14:10;;;;;;;;;68.00;54.00;;;;;;;;5043031;28;11678;-77
2021/11/25 14:16:47;;;;;;;;;59.75;47.50;;;;;;;;5026553;28;11817;-77
2021/11/25 14:19:31;;;;;;;;;67.50;52.75;;;;;;;;5038796;28;11640;-77
2021/11/25 14:21:59;;;;;;;;;62.75;49.50;;;;;;;;5022513;28;11634;-76
2021/11/25 14:24:27;;;;;;;;;65.00;49.00;;;;;;;;5024502;28;11620;-76
2021/11/25 14:30:12;;;;;;;;;57.50;45.75;;;;;;;;5021803;28;12165;-77
2021/11/25 14:32:44;;;;;;;;;61.50;52.00;;;;;;;;5043354;28;11518;-77
2021/11/25 14:35:37;;;;;;;;;55.00;46.50;;;;;;;;5043341;28;11579;-76
2021/11/25 14:38:06;;;;;;;;;62.75;51.75;;;;;;;;5043204;28;11601;-77
2021/11/25 14:40:35;;;;;;;;;53.50;45.00;;;;;;;;5034149;28;11545;-76
2021/11/25 14:43:04;;;;;;;;;57.00;47.00;;;;;;;;5043925;28;11708;-78
2021/11/25 14:45:32;;;;;;;;;55.25;42.75;;;;;;;;5024343;28;12451;-77